Time;durP1;ratioP1;P1;durP2;ratioP2;P2;SDS_P1;SDS_P2;PMS_P1;PMS_P2;Temp;Humidity;BMP_temperature;BMP_pressure;BME280_temperature;BME280_humidity;BME280_pressure;Samples;Min_cycle;Max_cycle;Signal;HPM_P1;HPM_P2
2023/03/23 00:01:09;;;;;;;57.80;22.55;;;7.40;96.00;;;;;;6139499;23;20020;-79
2023/03/23 00:03:36;;;;;;;58.72;22.75;;;7.70;96.20;;;;;;6163118;23;20055;-79
2023/03/23 00:06:06;;;;;;;61.80;23.15;;;7.60;96.20;;;;;;6137385;23;20019;-79
2023/03/23 00:08:33;;;;;;;54.28;23.33;;;7.50;96.30;;;;;;6138720;23;20020;-79
2023/03/23 00:11:00;;;;;;;52.67;22.02;;;7.50;96.20;;;;;;6162631;23;20044;-80
2023/03/23 00:13:28;;;;;;;53.92;22.88;;;7.50;96.20;;;;;;6164854;23;20011;-80
2023/03/23 00:15:58;;;;;;;52.28;22.10;;;7.40;96.20;;;;;;6163771;23;20025;-79
2023/03/23 00:18:24;;;;;;;58.35;21.33;;;7.50;96.50;;;;;;6155798;23;20411;-79
2023/03/23 00:20:53;;;;;;;52.22;21.20;;;7.30;96.50;;;;;;6158224;23;20453;-79
2023/03/23 00:23:22;;;;;;;52.30;20.23;;;7.40;96.60;;;;;;6146294;23;20040;-79
2023/03/23 00:25:52;;;;;;;55.15;22.33;;;7.40;96.70;;;;;;6137353;23;20020;-80
2023/03/23 00:28:24;;;;;;;51.45;20.60;;;7.40;96.90;;;;;;6163882;23;20067;-80
2023/03/23 00:31:01;;;;;;;59.20;23.90;;;7.30;96.80;;;;;;6163245;23;20013;-80
2023/03/23 00:33:29;;;;;;;52.95;21.95;;;6.90;97.00;;;;;;6138820;23;20066;-80
2023/03/23 00:35:56;;;;;;;61.33;21.45;;;7.50;96.80;;;;;;6188586;23;20024;-79
2023/03/23 00:38:23;;;;;;;58.20;22.77;;;7.40;96.90;;;;;;6163256;23;20024;-79
2023/03/23 00:40:50;;;;;;;57.45;22.45;;;7.10;96.90;;;;;;6188699;23;20447;-79
2023/03/23 00:43:18;;;;;;;55.25;20.27;;;7.10;97.00;;;;;;6164267;23;20026;-79
2023/03/23 00:45:49;;;;;;;57.25;23.15;;;7.30;97.10;;;;;;6160732;23;20071;-79
2023/03/23 00:48:15;;;;;;;56.75;25.00;;;7.10;97.20;;;;;;6139792;23;20020;-79
2023/03/23 00:50:41;;;;;;;58.38;23.08;;;7.20;97.40;;;;;;6163264;23;20507;-79
2023/03/23 00:53:07;;;;;;;55.53;22.92;;;7.10;97.60;;;;;;6188440;23;20017;-79
2023/03/23 00:55:33;;;;;;;53.05;22.08;;;7.10;97.50;;;;;;6162969;23;20614;-79
2023/03/23 00:58:00;;;;;;;61.00;22.48;;;7.00;97.20;;;;;;6190655;23;20020;-79
2023/03/23 01:00:26;;;;;;;56.20;22.45;;;6.90;97.30;;;;;;6163824;23;20078;-79
2023/03/23 01:02:55;;;;;;;63.65;24.02;;;6.90;97.40;;;;;;6164753;23;20357;-79
2023/03/23 01:05:21;;;;;;;61.85;24.17;;;7.10;97.50;;;;;;6213419;23;20016;-79
2023/03/23 01:07:48;;;;;;;66.00;23.63;;;7.00;97.40;;;;;;6188620;23;20502;-80
2023/03/23 01:10:17;;;;;;;61.72;24.45;;;7.20;97.60;;;;;;6164274;23;20016;-79
2023/03/23 01:12:47;;;;;;;60.63;23.13;;;7.00;97.80;;;;;;6163115;23;20012;-79
2023/03/23 01:15:17;;;;;;;55.80;23.45;;;7.00;97.90;;;;;;6138154;23;20016;-79
2023/03/23 01:17:46;;;;;;;57.60;23.58;;;6.80;97.90;;;;;;6163653;23;20024;-79
2023/03/23 01:20:14;;;;;;;60.30;22.80;;;6.60;97.80;;;;;;6163733;23;20781;-79
2023/03/23 01:22:42;;;;;;;55.00;21.83;;;6.70;98.10;;;;;;6163170;23;20040;-79
2023/03/23 01:25:10;;;;;;;53.92;20.80;;;6.80;98.10;;;;;;6163089;23;20044;-79
2023/03/23 01:27:37;;;;;;;61.00;22.58;;;6.40;98.10;;;;;;6138746;23;20111;-79
2023/03/23 01:30:05;;;;;;;49.92;21.65;;;6.80;98.00;;;;;;6163554;23;20441;-80
2023/03/23 01:32:32;;;;;;;57.78;20.92;;;6.70;98.20;;;;;;6213395;23;20016;-80
2023/03/23 01:34:58;;;;;;;52.65;21.52;;;6.70;98.20;;;;;;6138173;23;20023;-80
2023/03/23 01:37:26;;;;;;;57.40;22.48;;;6.70;98.30;;;;;;6163981;23;20035;-80
2023/03/23 01:39:55;;;;;;;55.47;22.35;;;6.60;98.30;;;;;;6139824;23;20023;-79
2023/03/23 01:42:30;;;;;;;57.17;21.50;;;6.70;98.30;;;;;;6188283;23;20075;-79
2023/03/23 01:45:30;;;;;;;52.28;20.45;;;6.40;98.30;;;;;;6139397;23;20016;-79
2023/03/23 01:48:01;;;;;;;55.97;21.73;;;6.60;98.30;;;;;;6138889;23;20448;-80
2023/03/23 01:50:30;;;;;;;54.30;21.40;;;6.90;98.50;;;;;;6140219;23;20067;-80
2023/03/23 01:52:59;;;;;;;53.50;22.13;;;6.70;98.30;;;;;;6138288;23;20368;-80
2023/03/23 01:55:27;;;;;;;54.55;21.63;;;6.60;98.40;;;;;;6188609;23;20025;-80
2023/03/23 01:57:55;;;;;;;59.05;22.85;;;6.50;98.40;;;;;;6163800;23;20039;-79
2023/03/23 02:00:25;;;;;;;50.58;20.88;;;6.50;98.40;;;;;;6164747;23;20008;-79
2023/03/23 02:02:57;;;;;;;51.20;20.55;;;6.50;98.40;;;;;;6189387;23;20070;-79
2023/03/23 02:05:43;;;;;;;56.90;21.25;;;6.40;98.50;;;;;;6215272;23;20012;-79
2023/03/23 02:08:20;;;;;;;44.45;19.15;;;6.40;98.70;;;;;;6192963;23;20020;-79
2023/03/23 02:10:46;;;;;;;41.88;19.13;;;6.50;99.10;;;;;;6165819;23;20067;-79
2023/03/23 02:13:14;;;;;;;45.63;18.65;;;6.50;99.20;;;;;;6165459;23;20017;-79
2023/03/23 02:16:08;;;;;;;50.85;19.60;;;6.20;99.20;;;;;;6165460;23;20024;-79
2023/03/23 02:18:52;;;;;;;49.45;20.98;;;6.70;99.30;;;;;;6165479;23;20890;-79
2023/03/23 02:21:40;;;;;;;53.40;19.42;;;6.50;99.30;;;;;;6190650;23;20043;-79
2023/03/23 02:24:37;;;;;;;46.20;19.25;;;6.50;99.30;;;;;;6166582;23;20023;-80
2023/03/23 02:27:12;;;;;;;39.90;17.55;;;6.50;99.40;;;;;;6177599;23;20020;-79
2023/03/23 02:30:04;;;;;;;48.40;18.50;;;6.20;99.20;;;;;;6162923;23;20016;-79
2023/03/23 02:32:48;;;;;;;45.00;17.60;;;6.40;99.10;;;;;;6138202;23;20059;-80
2023/03/23 02:35:22;;;;;;;50.17;18.33;;;6.40;99.20;;;;;;6164244;23;20021;-79
2023/03/23 02:37:50;;;;;;;37.55;16.08;;;6.20;99.40;;;;;;6138807;23;20012;-79
2023/03/23 02:40:21;;;;;;;42.90;16.40;;;6.50;99.50;;;;;;6139546;23;20643;-79
2023/03/23 02:42:51;;;;;;;41.03;17.45;;;6.30;99.50;;;;;;6188887;23;20020;-79
2023/03/23 02:45:20;;;;;;;44.13;17.70;;;6.10;99.60;;;;;;6139443;23;20083;-79
2023/03/23 02:47:52;;;;;;;40.00;17.05;;;6.20;99.80;;;;;;6163448;23;20016;-79
2023/03/23 02:50:21;;;;;;;45.83;18.45;;;6.40;99.90;;;;;;6163798;23;20020;-79
2023/03/23 02:52:50;;;;;;;41.53;16.75;;;6.20;99.90;;;;;;6162985;23;20013;-79
2023/03/23 02:55:18;;;;;;;41.08;16.20;;;6.10;99.80;;;;;;6134505;23;20029;-80
2023/03/23 02:57:46;;;;;;;37.88;15.88;;;6.20;99.90;;;;;;6134547;23;20508;-79
2023/03/23 03:00:18;;;;;;;41.53;17.05;;;6.10;99.70;;;;;;6160007;23;20047;-79
2023/03/23 03:02:47;;;;;;;41.25;16.98;;;6.10;99.70;;;;;;6109387;23;20017;-79
2023/03/23 03:05:51;;;;;;;40.33;15.40;;;6.00;99.70;;;;;;6135075;23;20025;-79
2023/03/23 03:08:45;;;;;;;36.13;14.95;;;6.00;99.70;;;;;;6160138;23;20142;-79
2023/03/23 03:11:15;;;;;;;37.72;14.68;;;6.00;99.80;;;;;;6135434;23;20410;-79
2023/03/23 03:13:47;;;;;;;37.45;15.50;;;6.00;99.80;;;;;;6184879;23;20727;-79
2023/03/23 03:16:29;;;;;;;36.53;15.70;;;6.10;99.80;;;;;;6135075;23;20021;-80
2023/03/23 03:19:15;;;;;;;32.83;14.07;;;6.00;99.90;;;;;;6160106;23;20021;-79
2023/03/23 03:21:47;;;;;;;33.80;14.82;;;6.00;99.90;;;;;;6160647;23;20121;-80
2023/03/23 03:24:19;;;;;;;37.55;15.20;;;5.90;99.90;;;;;;6135454;23;20344;-80
2023/03/23 03:26:53;;;;;;;33.90;14.75;;;6.20;99.90;;;;;;6161746;23;20067;-80
2023/03/23 03:29:31;;;;;;;35.88;14.75;;;5.80;99.90;;;;;;6138198;23;20099;-79
2023/03/23 03:32:00;;;;;;;27.10;12.52;;;5.90;99.90;;;;;;6159646;23;20017;-79
2023/03/23 03:34:31;;;;;;;36.65;13.45;;;6.00;99.90;;;;;;6135812;23;20017;-80
2023/03/23 03:36:59;;;;;;;33.17;13.75;;;6.10;99.90;;;;;;6135616;23;20104;-79
2023/03/23 03:39:27;;;;;;;32.78;14.20;;;6.00;99.90;;;;;;6138031;23;20061;-79
2023/03/23 03:41:54;;;;;;;33.08;14.43;;;6.10;99.90;;;;;;6160014;23;20385;-79
2023/03/23 03:44:21;;;;;;;30.38;12.68;;;5.80;99.90;;;;;;6135285;23;20012;-79
2023/03/23 03:46:47;;;;;;;30.33;13.00;;;6.00;99.90;;;;;;6135150;23;20013;-79
2023/03/23 03:49:18;;;;;;;25.98;12.48;;;6.00;99.90;;;;;;6135826;23;20025;-79
2023/03/23 03:51:48;;;;;;;31.13;13.38;;;6.00;99.90;;;;;;6134874;23;20716;-79
2023/03/23 03:54:24;;;;;;;26.63;12.68;;;5.90;99.90;;;;;;6137516;23;20017;-80
2023/03/23 03:56:51;;;;;;;27.83;12.75;;;5.80;99.90;;;;;;6139738;23;20755;-80
2023/03/23 03:59:36;;;;;;;31.88;12.98;;;6.00;99.90;;;;;;6172853;23;20023;-79
2023/03/23 04:02:21;;;;;;;30.40;13.13;;;5.90;99.90;;;;;;6168371;23;20020;-80
2023/03/23 04:04:52;;;;;;;32.00;13.43;;;5.80;99.90;;;;;;6141590;23;20064;-80
2023/03/23 04:07:21;;;;;;;30.95;12.98;;;5.90;99.90;;;;;;6140849;23;20013;-79
2023/03/23 04:09:49;;;;;;;30.13;12.73;;;5.90;99.90;;;;;;6140574;23;20523;-80
2023/03/23 04:12:18;;;;;;;28.90;12.07;;;5.70;99.90;;;;;;6141920;23;20019;-80
2023/03/23 04:15:00;;;;;;;31.63;12.63;;;5.70;99.90;;;;;;6170660;23;20020;-79
2023/03/23 04:17:31;;;;;;;37.08;15.52;;;5.80;99.90;;;;;;6170101;23;20016;-80
2023/03/23 04:19:57;;;;;;;30.17;13.30;;;5.70;99.90;;;;;;6141007;23;20659;-80
2023/03/23 04:22:29;;;;;;;31.40;12.57;;;5.70;99.90;;;;;;6140868;23;20023;-79
2023/03/23 04:24:59;;;;;;;27.88;12.93;;;5.80;99.90;;;;;;6139936;23;20025;-80
2023/03/23 04:27:27;;;;;;;28.88;13.90;;;5.70;99.90;;;;;;6141299;23;20023;-80
2023/03/23 04:29:57;;;;;;;24.30;11.25;;;5.80;99.90;;;;;;6141572;23;20021;-80
2023/03/23 04:32:42;;;;;;;29.63;12.32;;;5.70;99.90;;;;;;6148862;23;20020;-79
2023/03/23 04:35:13;;;;;;;30.58;12.25;;;5.70;99.90;;;;;;6167465;23;20036;-79
2023/03/23 04:37:52;;;;;;;36.88;13.50;;;5.70;99.90;;;;;;6146103;23;20017;-79
2023/03/23 04:40:21;;;;;;;31.92;12.45;;;5.60;99.90;;;;;;6141006;23;20147;-80
2023/03/23 04:43:05;;;;;;;29.50;12.68;;;5.70;99.90;;;;;;6167956;23;20020;-80
2023/03/23 04:46:02;;;;;;;31.67;12.95;;;5.60;99.90;;;;;;6173273;23;20028;-80
2023/03/23 04:48:33;;;;;;;36.25;14.48;;;5.80;99.90;;;;;;6166319;23;20348;-80
2023/03/23 04:51:18;;;;;;;33.15;13.10;;;5.80;99.90;;;;;;6112794;23;20014;-80
2023/03/23 04:53:48;;;;;;;29.15;12.82;;;5.70;99.90;;;;;;6105398;23;20021;-79
2023/03/23 04:56:14;;;;;;;32.63;12.45;;;5.70;99.90;;;;;;6077383;23;20693;-81
2023/03/23 04:58:45;;;;;;;28.40;12.65;;;5.40;99.90;;;;;;6078439;23;20038;-79
2023/03/23 05:01:45;;;;;;;32.60;12.90;;;5.80;99.90;;;;;;6103509;23;20077;-79
2023/03/23 05:04:18;;;;;;;27.48;12.57;;;5.80;99.90;;;;;;6079255;23;20028;-81
2023/03/23 05:06:56;;;;;;;28.75;12.98;;;5.60;99.90;;;;;;6078801;23;20026;-79
2023/03/23 05:09:26;;;;;;;30.67;12.65;;;5.70;99.90;;;;;;6077099;23;20454;-80
2023/03/23 05:11:52;;;;;;;30.38;12.45;;;5.40;99.90;;;;;;6100025;23;20833;-79
2023/03/23 05:14:21;;;;;;;30.17;11.88;;;5.70;99.90;;;;;;6076449;23;20438;-79
2023/03/23 05:16:59;;;;;;;33.55;12.82;;;5.70;99.90;;;;;;6078652;23;20777;-79
2023/03/23 05:19:28;;;;;;;31.25;12.95;;;5.70;99.90;;;;;;6075655;23;20022;-79
2023/03/23 05:22:02;;;;;;;34.60;13.25;;;5.80;99.90;;;;;;6099933;23;20017;-79
2023/03/23 05:24:37;;;;;;;31.33;12.90;;;5.80;99.90;;;;;;6136570;23;20100;-79
2023/03/23 05:27:04;;;;;;;30.48;12.65;;;5.60;99.90;;;;;;6135458;23;20020;-80
2023/03/23 05:29:36;;;;;;;27.38;11.68;;;5.90;99.90;;;;;;6136376;23;20752;-80
2023/03/23 05:32:04;;;;;;;30.20;13.07;;;5.80;99.90;;;;;;6135093;23;20092;-80
2023/03/23 05:34:36;;;;;;;32.33;12.23;;;5.90;99.90;;;;;;6158343;23;20013;-79
2023/03/23 05:37:03;;;;;;;32.92;13.15;;;6.00;99.90;;;;;;6140593;23;20429;-80
2023/03/23 05:39:45;;;;;;;29.73;12.70;;;6.00;99.90;;;;;;6182921;23;20017;-79
2023/03/23 05:42:24;;;;;;;28.42;12.75;;;6.00;99.90;;;;;;6141266;23;20021;-80
2023/03/23 05:45:03;;;;;;;28.08;12.15;;;6.00;99.90;;;;;;6150573;23;20013;-79
2023/03/23 05:47:30;;;;;;;27.58;12.38;;;6.10;99.90;;;;;;6135986;23;20079;-80
2023/03/23 05:50:06;;;;;;;29.05;12.02;;;6.10;99.90;;;;;;6175576;23;20029;-79
2023/03/23 05:52:37;;;;;;;29.83;12.27;;;6.20;99.90;;;;;;6109475;23;20468;-80
2023/03/23 05:55:08;;;;;;;29.10;11.88;;;6.30;99.90;;;;;;6159591;23;20025;-80
2023/03/23 05:57:36;;;;;;;26.15;11.57;;;6.40;99.90;;;;;;6112288;23;20530;-80
2023/03/23 07:24:28;;;;;;;15.88;8.05;;;11.70;92.70;;;;;;6249426;22;20125;31
2023/03/23 07:34:44;;;;;;;16.02;6.97;;;12.00;91.00;;;;;;6236429;22;20024;-80
2023/03/23 07:37:45;;;;;;;15.27;7.03;;;12.10;90.60;;;;;;6243311;22;20027;-79
2023/03/23 07:40:35;;;;;;;14.48;6.55;;;12.30;90.70;;;;;;6196237;22;20019;-79
2023/03/23 07:43:13;;;;;;;12.63;6.97;;;12.50;90.40;;;;;;6181516;23;20125;-80
2023/03/23 07:45:59;;;;;;;14.57;7.13;;;12.50;89.60;;;;;;6178303;23;20035;-80
2023/03/23 07:52:19;;;;;;;14.55;7.32;;;13.10;88.80;;;;;;6251032;22;20008;-79
2023/03/23 07:54:45;;;;;;;12.23;6.30;;;13.30;89.40;;;;;;6156067;23;20024;-79
2023/03/23 07:57:32;;;;;;;11.77;6.57;;;13.40;87.50;;;;;;6168525;23;20110;-80
2023/03/23 08:00:14;;;;;;;12.93;6.82;;;13.60;87.50;;;;;;6137854;23;20339;-80
2023/03/23 08:02:50;;;;;;;13.27;6.45;;;13.60;87.90;;;;;;6167764;23;20021;-80
2023/03/23 08:05:41;;;;;;;10.43;6.03;;;13.70;85.50;;;;;;6087396;23;20031;-80
2023/03/23 08:08:14;;;;;;;12.82;6.43;;;13.70;86.00;;;;;;6167251;23;20032;-80
2023/03/23 08:11:02;;;;;;;11.80;6.05;;;13.70;85.50;;;;;;6168144;23;20102;-80
2023/03/23 08:16:49;;;;;;;11.40;5.93;;;14.00;85.50;;;;;;6245128;22;20035;-80
2023/03/23 08:19:30;;;;;;;10.75;5.43;;;14.00;85.00;;;;;;6145205;23;20017;-80
2023/03/23 08:22:07;;;;;;;12.93;5.82;;;14.20;83.90;;;;;;6217137;22;20641;-80
2023/03/23 08:24:53;;;;;;;8.88;5.22;;;14.20;84.60;;;;;;6196876;23;20352;-80
2023/03/23 08:27:58;;;;;;;11.20;5.45;;;14.40;83.00;;;;;;6192645;22;20061;-80
2023/03/23 08:30:43;;;;;;;12.32;6.03;;;14.30;83.20;;;;;;6205694;23;20020;-80
2023/03/23 08:33:33;;;;;;;10.07;5.82;;;14.50;82.80;;;;;;6208010;22;20365;-80
2023/03/23 08:36:24;;;;;;;10.80;5.68;;;14.50;82.80;;;;;;6071925;23;20085;-80
2023/03/23 08:39:09;;;;;;;10.13;5.60;;;14.80;83.40;;;;;;6214447;23;20027;-80
2023/03/23 08:41:54;;;;;;;13.32;5.07;;;14.80;81.90;;;;;;6186205;22;20086;-80
2023/03/23 08:44:40;;;;;;;9.65;5.07;;;15.00;80.70;;;;;;6193517;23;20020;-79
2023/03/23 08:47:47;;;;;;;8.85;4.60;;;15.10;79.80;;;;;;6187690;23;20071;-79
2023/03/23 08:50:33;;;;;;;9.35;5.22;;;15.20;79.10;;;;;;6190251;22;20032;-80
2023/03/23 08:53:23;;;;;;;10.20;5.10;;;15.60;80.60;;;;;;6204919;23;20068;-80
2023/03/23 08:56:18;;;;;;;9.73;4.40;;;15.50;78.40;;;;;;6224461;23;20472;-80
2023/03/23 08:59:03;;;;;;;7.97;4.32;;;15.50;78.40;;;;;;6217901;23;20031;-79
2023/03/23 09:01:52;;;;;;;9.80;5.35;;;15.80;77.90;;;;;;6108955;22;20025;-79
2023/03/23 09:04:46;;;;;;;12.02;5.43;;;16.10;78.10;;;;;;6237090;22;20015;31
2023/03/23 09:08:11;;;;;;;10.25;5.05;;;16.20;77.70;;;;;;6258844;22;20024;-80
2023/03/23 09:10:40;;;;;;;10.02;4.05;;;16.50;75.90;;;;;;6164634;23;20045;-79
2023/03/23 09:13:08;;;;;;;7.38;3.75;;;16.50;75.40;;;;;;6161282;23;20020;-78
2023/03/23 09:15:35;;;;;;;5.47;3.17;;;16.40;73.20;;;;;;6139741;23;20306;-78
2023/03/23 09:18:04;;;;;;;6.20;3.13;;;16.60;71.80;;;;;;6162584;23;20016;-77
2023/03/23 09:20:31;;;;;;;5.93;2.97;;;16.70;71.80;;;;;;6160605;23;20310;-79
2023/03/23 09:22:58;;;;;;;4.40;2.28;;;16.60;71.80;;;;;;6154665;23;20416;-78
2023/03/23 09:25:26;;;;;;;5.38;2.97;;;16.70;70.10;;;;;;6126433;23;20013;-79
2023/03/23 09:27:59;;;;;;;5.15;3.00;;;16.90;70.40;;;;;;6148787;23;20025;-79
2023/03/23 09:30:28;;;;;;;6.55;2.72;;;17.10;69.70;;;;;;6147297;23;20041;-78
2023/03/23 09:32:55;;;;;;;5.10;2.40;;;17.10;69.00;;;;;;6152028;23;20021;-76
2023/03/23 09:35:22;;;;;;;5.25;2.38;;;17.20;68.60;;;;;;6123612;23;20052;-78
2023/03/23 09:37:53;;;;;;;4.10;2.03;;;17.40;68.80;;;;;;6150784;23;20021;-78
2023/03/23 09:40:27;;;;;;;5.25;2.25;;;17.50;67.50;;;;;;6127022;22;20060;-78
2023/03/23 09:43:27;;;;;;;5.28;1.65;;;17.70;67.30;;;;;;6187646;22;20023;-78
2023/03/23 09:46:21;;;;;;;4.18;2.17;;;18.00;66.70;;;;;;6178053;23;20682;-79
2023/03/23 09:49:02;;;;;;;4.70;1.60;;;17.90;65.30;;;;;;6204085;23;20507;-79
2023/03/23 09:51:51;;;;;;;5.18;2.15;;;17.60;66.30;;;;;;6155475;23;20041;-79
2023/03/23 09:54:26;;;;;;;4.28;1.73;;;17.50;65.70;;;;;;6182444;23;20536;-78
2023/03/23 09:56:54;;;;;;;4.95;2.15;;;17.30;66.90;;;;;;6184157;23;20109;-79
2023/03/23 09:59:39;;;;;;;5.03;1.80;;;16.60;66.70;;;;;;6177702;23;20412;-78
2023/03/23 10:02:19;;;;;;;4.03;1.75;;;17.30;66.60;;;;;;6181477;23;20516;-78
2023/03/23 10:04:54;;;;;;;2.92;1.50;;;17.80;65.70;;;;;;6155946;23;20501;-77
2023/03/23 10:07:25;;;;;;;2.55;1.45;;;18.20;65.60;;;;;;6163847;23;20020;-79
2023/03/23 10:10:02;;;;;;;3.47;1.25;;;18.40;65.10;;;;;;6121887;23;20104;-78
2023/03/23 10:12:42;;;;;;;2.65;0.95;;;18.70;62.90;;;;;;6115744;23;20095;-79
2023/03/23 10:15:23;;;;;;;4.70;1.30;;;18.90;62.40;;;;;;6123116;23;20025;-79
2023/03/23 10:17:57;;;;;;;2.72;1.30;;;18.80;60.90;;;;;;6174305;23;20020;-79
2023/03/23 10:20:54;;;;;;;7.70;0.82;;;18.70;61.80;;;;;;6207390;23;20433;-79
2023/03/23 10:23:51;;;;;;;2.92;1.42;;;17.90;59.30;;;;;;6180187;23;20099;-79
2023/03/23 10:26:50;;;;;;;6.20;0.60;;;18.50;60.10;;;;;;6203784;23;20030;-79
2023/03/23 10:29:29;;;;;;;5.57;0.90;;;18.70;60.10;;;;;;6206405;23;20016;-79
2023/03/23 10:32:17;;;;;;;35.47;3.13;;;18.80;60.50;;;;;;6180070;23;20038;-79
2023/03/23 10:35:01;;;;;;;1.77;0.88;;;18.90;59.60;;;;;;6158582;23;20012;-80
2023/03/23 10:37:32;;;;;;;1.83;1.02;;;18.80;59.80;;;;;;6177796;23;20016;-79
2023/03/23 10:40:09;;;;;;;1.58;0.82;;;18.70;59.80;;;;;;6156536;23;20351;-78
2023/03/23 10:42:38;;;;;;;2.95;0.70;;;18.80;59.40;;;;;;6182562;23;20381;-79
2023/03/23 10:45:29;;;;;;;5.22;1.92;;;18.80;59.10;;;;;;6206492;23;20034;-77
2023/03/23 10:48:04;;;;;;;4.40;1.98;;;18.80;59.60;;;;;;6229802;22;20367;-78
2023/03/23 10:50:34;;;;;;;2.75;1.02;;;18.90;59.00;;;;;;6240525;22;20085;-79
2023/03/23 10:53:03;;;;;;;3.45;1.35;;;18.90;59.30;;;;;;6212638;22;20070;-79
2023/03/23 10:55:40;;;;;;;1.42;0.60;;;18.80;59.40;;;;;;6191325;22;20361;-79
2023/03/23 10:58:10;;;;;;;0.93;0.40;;;18.80;59.60;;;;;;6217051;22;20511;-79
2023/03/23 11:00:46;;;;;;;1.77;0.52;;;18.80;59.20;;;;;;6266886;22;20538;-78
2023/03/23 11:03:18;;;;;;;2.05;0.50;;;18.80;59.30;;;;;;6221807;22;20023;-79
2023/03/23 11:05:59;;;;;;;2.38;0.88;;;18.40;59.90;;;;;;6221212;22;20045;-79
2023/03/23 11:08:34;;;;;;;2.20;0.85;;;18.70;60.20;;;;;;6216984;22;20035;-81
2023/03/23 11:11:25;;;;;;;1.83;1.00;;;18.70;60.10;;;;;;6211447;22;20023;-80
2023/03/23 11:14:01;;;;;;;4.20;1.08;;;18.50;60.90;;;;;;6192752;22;20063;-80
2023/03/23 11:16:33;;;;;;;3.53;0.60;;;18.40;60.70;;;;;;6193343;22;20019;-80
2023/03/23 11:19:13;;;;;;;2.40;0.70;;;18.60;61.00;;;;;;6238907;22;20114;-80
2023/03/23 11:21:41;;;;;;;1.45;0.70;;;18.50;60.60;;;;;;6193159;22;20062;-80
2023/03/23 11:24:08;;;;;;;1.52;0.73;;;18.50;59.70;;;;;;6187950;22;20158;-80
2023/03/23 11:26:39;;;;;;;2.25;0.90;;;18.50;59.90;;;;;;6193581;22;20020;-80
2023/03/23 11:29:19;;;;;;;1.90;0.63;;;18.70;61.00;;;;;;6240185;22;20394;-80
2023/03/23 11:31:53;;;;;;;4.90;1.00;;;19.60;61.50;;;;;;6196644;22;20515;-78
2023/03/23 11:34:26;;;;;;;1.38;0.73;;;18.70;60.40;;;;;;6211871;22;20019;-80
2023/03/23 11:36:58;;;;;;;;;;;18.80;61.10;;;;;;6186469;22;20053;-79
2023/03/23 11:39:49;;;;;;;2.95;0.82;;;18.70;60.00;;;;;;6161786;23;19915;-79
2023/03/23 11:42:21;;;;;;;1.45;0.73;;;18.80;60.20;;;;;;6192495;23;20027;-79
2023/03/23 11:44:48;;;;;;;;;;;18.90;59.90;;;;;;6184978;23;20020;-80
2023/03/23 11:47:39;;;;;;;1.95;0.77;;;18.60;59.60;;;;;;6188360;23;19923;-79
2023/03/23 11:50:23;;;;;;;2.85;1.05;;;19.50;59.30;;;;;;6138055;23;20024;-79
2023/03/23 11:53:13;;;;;;;4.00;0.88;;;19.10;59.70;;;;;;6189294;23;20016;-80
2023/03/23 11:56:14;;;;;;;2.08;0.80;;;19.00;60.00;;;;;;6149512;23;20005;-79
2023/03/23 11:58:41;;;;;;;4.30;0.80;;;18.90;59.90;;;;;;6098928;23;20528;-80
2023/03/23 12:01:25;;;;;;;2.08;0.55;;;18.70;59.70;;;;;;6123685;23;20076;-80
2023/03/23 12:04:26;;;;;;;1.90;0.55;;;18.70;60.00;;;;;;6120387;23;20021;-80
2023/03/23 12:06:57;;;;;;;1.80;0.60;;;18.60;59.50;;;;;;6031889;23;20030;-79
2023/03/23 12:09:56;;;;;;;3.63;0.93;;;18.50;60.10;;;;;;6110546;23;20021;-80
2023/03/23 12:12:51;;;;;;;1.77;0.60;;;18.40;60.00;;;;;;6129325;23;20487;-80
2023/03/23 12:15:31;;;;;;;2.38;0.98;;;18.40;61.00;;;;;;6107484;23;20273;-80
2023/03/23 12:18:20;;;;;;;3.83;0.70;;;18.40;61.60;;;;;;6129905;23;20432;-80
2023/03/23 12:21:16;;;;;;;2.30;0.50;;;18.30;61.30;;;;;;6107166;23;20022;-80
2023/03/23 12:23:58;;;;;;;3.10;0.60;;;18.40;60.50;;;;;;6058877;23;20354;-80
2023/03/23 12:26:26;;;;;;;1.42;0.47;;;17.90;60.10;;;;;;6064427;23;20569;-80
2023/03/23 12:29:04;;;;;;;4.63;0.85;;;19.20;59.90;;;;;;6058533;23;20540;-79
2023/03/23 12:31:45;;;;;;;1.48;0.60;;;19.50;59.40;;;;;;6083926;23;20361;-80
2023/03/23 12:34:39;;;;;;;2.40;1.00;;;19.70;59.10;;;;;;6081071;23;20019;-80
2023/03/23 12:37:27;;;;;;;1.70;0.65;;;19.80;58.30;;;;;;6195644;23;20021;-80
2023/03/23 12:40:07;;;;;;;2.00;0.77;;;19.80;58.40;;;;;;6115900;23;20023;-80
2023/03/23 12:42:55;;;;;;;3.55;0.68;;;19.90;57.30;;;;;;6142552;23;20268;-80
2023/03/23 12:45:43;;;;;;;1.70;0.50;;;20.00;57.10;;;;;;6094346;23;20021;-79
2023/03/23 12:48:13;;;;;;;1.58;0.70;;;19.90;57.00;;;;;;6141669;23;20028;-80
2023/03/23 12:51:00;;;;;;;3.00;0.90;;;20.10;57.70;;;;;;6093727;23;20048;-79
2023/03/23 12:53:32;;;;;;;4.47;0.95;;;19.40;55.90;;;;;;6173139;23;20076;-80
2023/03/23 12:56:15;;;;;;;1.83;0.88;;;20.20;57.00;;;;;;6177220;23;20086;-80
2023/03/23 12:59:17;;;;;;;2.00;0.80;;;20.20;57.10;;;;;;6146994;23;20025;-80
2023/03/23 13:01:48;;;;;;;2.85;1.15;;;20.20;56.20;;;;;;6196786;23;20129;-80
2023/03/23 13:04:38;;;;;;;1.40;0.60;;;20.30;57.10;;;;;;6147659;23;20031;-80
2023/03/23 13:07:09;;;;;;;3.45;0.85;;;20.30;56.20;;;;;;6175457;23;20519;-79
2023/03/23 13:09:58;;;;;;;3.13;0.60;;;20.30;55.80;;;;;;6175758;23;20027;-80
2023/03/23 13:12:26;;;;;;;3.17;0.75;;;20.40;55.90;;;;;;6171777;23;20325;-79
2023/03/23 13:15:11;;;;;;;1.52;0.60;;;20.50;57.10;;;;;;6173382;23;20357;-80
2023/03/23 13:18:01;;;;;;;1.63;0.60;;;20.50;56.20;;;;;;6150025;23;20328;-80
2023/03/23 13:20:34;;;;;;;1.42;0.80;;;19.90;56.00;;;;;;6172238;23;20123;-79
2023/03/23 13:23:11;;;;;;;1.50;0.60;;;20.50;56.80;;;;;;6175208;23;20016;-80
2023/03/23 13:25:56;;;;;;;2.35;0.60;;;20.60;57.40;;;;;;6171096;23;20028;-79
2023/03/23 13:28:34;;;;;;;1.98;0.50;;;20.80;56.40;;;;;;6174215;23;20381;-80
2023/03/23 13:31:02;;;;;;;1.52;0.50;;;20.70;56.30;;;;;;6155170;22;19997;-80
2023/03/23 13:33:51;;;;;;;3.30;0.60;;;20.60;56.90;;;;;;6185578;22;20015;31
2023/03/23 13:36:55;;;;;;;2.80;0.60;;;20.60;57.10;;;;;;6216662;22;20387;-79
2023/03/23 13:39:33;;;;;;;4.43;0.80;;;21.10;58.40;;;;;;6178997;23;20119;-79
2023/03/23 13:42:20;;;;;;;1.35;0.52;;;20.40;57.00;;;;;;6177843;23;20019;-79
2023/03/23 13:44:52;;;;;;;2.97;0.50;;;20.20;57.40;;;;;;6183776;23;20077;-79
2023/03/23 13:47:25;;;;;;;2.03;0.75;;;20.20;56.90;;;;;;6216579;23;20008;-80
2023/03/23 13:49:56;;;;;;;2.05;0.50;;;20.30;57.50;;;;;;6178330;23;20031;-79
2023/03/23 13:52:46;;;;;;;1.70;0.63;;;20.30;56.50;;;;;;6205686;23;20091;-79
2023/03/23 13:55:15;;;;;;;5.40;0.90;;;19.50;57.30;;;;;;6213036;23;20442;-79
2023/03/23 13:58:05;;;;;;;4.25;0.60;;;20.20;58.10;;;;;;6206525;23;20094;-79
2023/03/23 14:00:32;;;;;;;1.75;0.65;;;20.30;57.20;;;;;;6178165;23;20414;-79
2023/03/23 14:03:13;;;;;;;1.00;0.52;;;20.30;57.00;;;;;;6179956;23;20031;-79
2023/03/23 14:05:59;;;;;;;2.90;0.68;;;20.40;57.30;;;;;;6206659;23;20026;-79
2023/03/23 14:08:27;;;;;;;1.25;0.57;;;20.30;57.10;;;;;;6146464;23;20016;-79
2023/03/23 14:10:57;;;;;;;3.40;0.70;;;20.20;57.20;;;;;;6156321;23;20052;-79
2023/03/23 14:13:39;;;;;;;2.17;0.85;;;19.30;56.70;;;;;;6132689;23;20021;-79
2023/03/23 14:16:19;;;;;;;2.05;1.00;;;20.20;56.90;;;;;;6131943;23;20162;-79
2023/03/23 14:18:57;;;;;;;1.25;0.70;;;20.50;57.90;;;;;;6155385;23;20017;-80
2023/03/23 14:27:57;;;;;;;2.80;0.80;;;20.20;57.20;;;;;;6222547;22;20156;-79
2023/03/23 14:30:27;;;;;;;2.30;0.52;;;20.10;56.90;;;;;;6186491;23;20127;-79
2023/03/23 14:33:03;;;;;;;2.90;0.68;;;20.00;57.10;;;;;;6160932;23;20090;-78
2023/03/23 14:35:35;;;;;;;1.23;0.50;;;19.90;56.70;;;;;;6166209;23;20419;-81
2023/03/23 14:38:05;;;;;;;2.38;0.80;;;19.70;57.80;;;;;;6167796;23;20020;-79
2023/03/23 14:40:33;;;;;;;3.33;1.15;;;19.60;58.00;;;;;;6162160;23;20021;-79
2023/03/23 14:43:00;;;;;;;2.75;0.50;;;19.50;58.00;;;;;;6161939;23;20084;-79
2023/03/23 14:48:44;;;;;;;3.38;1.10;;;19.30;59.10;;;;;;6211101;22;20166;-79
2023/03/23 14:51:19;;;;;;;3.70;0.70;;;18.40;58.50;;;;;;6158328;23;20364;-81
2023/03/23 14:53:47;;;;;;;2.28;0.88;;;19.10;59.30;;;;;;6181245;23;20452;-79
2023/03/23 14:56:27;;;;;;;2.40;0.63;;;19.20;58.70;;;;;;6169820;23;20062;-80
2023/03/23 14:59:05;;;;;;;6.13;2.30;;;19.00;59.30;;;;;;6116624;23;20358;-80
2023/03/23 15:01:33;;;;;;;2.63;0.95;;;19.10;59.30;;;;;;6074420;23;20804;-80
2023/03/23 15:04:05;;;;;;;2.53;0.65;;;19.10;58.60;;;;;;6038249;23;20509;-79
2023/03/23 15:06:36;;;;;;;2.47;1.17;;;19.20;58.70;;;;;;6070285;23;20021;-79
2023/03/23 15:09:06;;;;;;;1.73;0.75;;;19.20;58.70;;;;;;6071811;23;20440;-79
2023/03/23 15:11:35;;;;;;;2.70;0.88;;;19.20;58.40;;;;;;6063578;23;20538;-79
2023/03/23 15:14:15;;;;;;;1.95;0.80;;;19.20;58.60;;;;;;6040075;23;20022;-79
2023/03/23 15:16:49;;;;;;;2.63;1.25;;;19.10;59.00;;;;;;6066221;23;20142;-79
2023/03/23 15:19:25;;;;;;;4.03;1.42;;;19.00;58.90;;;;;;6071542;23;20033;-80